createdAt,value
2022-08-09T00:04:06.065Z,5.4
2022-08-09T00:09:02.584Z,5.4
2022-08-09T00:14:06.010Z,5.2
2022-08-09T00:19:10.649Z,5.2
2022-08-09T00:24:15.080Z,5.1
2022-08-09T00:29:39.273Z,4.7
2022-08-09T00:34:23.147Z,4.6
2022-08-09T00:40:13.263Z,4.3
2022-08-09T00:44:32.356Z,3.7
2022-08-09T00:49:36.916Z,3.5
2022-08-09T00:54:40.290Z,3.5
2022-08-09T00:59:46.265Z,3.8
2022-08-09T01:04:48.352Z,4.1
2022-08-09T01:09:52.908Z,4.2
2022-08-09T01:14:57.443Z,4.3
2022-08-09T01:20:02.731Z,4.2
2022-08-09T01:25:05.494Z,4
2022-08-09T01:30:28.799Z,3.9
2022-08-09T01:35:28.444Z,3.8
2022-08-09T01:40:23.005Z,3.9
2022-08-09T01:45:22.639Z,3.9
2022-08-09T01:50:30.060Z,3.8
2022-08-09T01:55:30.713Z,3.7
2022-08-09T02:00:36.256Z,3.6
2022-08-09T02:06:04.167Z,3.5
2022-08-09T02:10:51.023Z,3.5
2022-08-09T02:15:49.679Z,3.5
2022-08-09T02:20:52.440Z,3.5
2022-08-09T02:25:56.998Z,3.1
2022-08-09T02:31:00.491Z,3.2
2022-08-09T02:36:05.048Z,3.1
2022-08-09T02:41:09.595Z,3.1
2022-08-09T02:46:13.133Z,3.1
2022-08-09T02:51:17.666Z,3.1
2022-08-09T02:56:22.179Z,3.3
2022-08-09T03:01:29.593Z,3.3
2022-08-09T03:06:30.282Z,3.2
2022-08-09T03:12:05.471Z,3
2022-08-09T03:16:41.811Z,3
2022-08-09T03:21:41.911Z,2.9
2022-08-09T03:26:47.193Z,2.6
2022-08-09T03:32:00.362Z,2.5
2022-08-09T03:36:58.174Z,2.4
2022-08-09T03:42:06.102Z,2.4
2022-08-09T03:47:03.602Z,2.4
2022-08-09T03:52:08.134Z,2.5
2022-08-09T03:57:18.614Z,2.5
2022-08-09T04:02:19.859Z,2.5
2022-08-09T04:07:20.740Z,2.3
2022-08-09T04:12:30.996Z,2.4
2022-08-09T04:17:29.529Z,2.3
2022-08-09T04:22:33.571Z,2.2
2022-08-09T04:27:37.905Z,1.9
2022-08-09T04:32:45.857Z,2
2022-08-09T04:37:46.823Z,2.2
2022-08-09T04:42:50.503Z,2.5
2022-08-09T04:48:00.893Z,2.8
2022-08-09T04:52:58.613Z,3.1
2022-08-09T04:58:09.269Z,3.1
2022-08-09T05:03:24.138Z,3.5
2022-08-09T05:08:13.952Z,3.4
2022-08-09T05:13:15.721Z,3.3
2022-08-09T05:18:42.487Z,3.4
2022-08-09T05:23:55.468Z,3.3
2022-08-09T05:28:28.357Z,3.5
2022-08-09T05:33:33.057Z,3.5
2022-08-09T05:38:39.108Z,3.8
2022-08-09T05:43:45.205Z,4.4
2022-08-09T05:48:45.484Z,4.8
2022-08-09T05:53:56.846Z,5.5
2022-08-09T05:58:57.852Z,5.5
2022-08-09T06:03:58.888Z,5.8
2022-08-09T06:09:01.662Z,5.6
2022-08-09T06:14:06.208Z,5.6
2022-08-09T06:19:10.728Z,6.2
2022-08-09T06:24:14.273Z,6.1
2022-08-09T06:29:18.828Z,7
2022-08-09T06:34:23.674Z,7
2022-08-09T06:39:38.708Z,7.3
2022-08-09T06:44:31.440Z,6.7
2022-08-09T06:50:11.556Z,5.7
2022-08-09T06:54:41.416Z,6
2022-08-09T07:00:49.824Z,7.7
2022-08-09T07:04:48.615Z,7.6
2022-08-09T07:10:11.531Z,8.1
2022-08-09T07:14:56.663Z,9.1
2022-08-09T07:20:01.195Z,8.6
2022-08-09T07:25:09.950Z,9.1
2022-08-09T07:30:09.291Z,9.4
2022-08-09T07:35:14.749Z,9.6
2022-08-09T07:40:18.720Z,9.5
2022-08-09T07:45:23.598Z,9.4
2022-08-09T07:50:33.035Z,9.4
2022-08-09T07:55:29.999Z,10.3
2022-08-09T08:00:36.298Z,7.7
2022-08-09T08:05:57.917Z,6.4
2022-08-09T08:11:03.431Z,6.7
2022-08-09T08:15:47.159Z,8.4
2022-08-09T08:20:51.718Z,8.3
2022-08-09T08:26:06.475Z,9
2022-08-09T08:31:02.461Z,8.8
2022-08-09T08:36:04.405Z,8.4
2022-08-09T08:41:08.877Z,9.8
2022-08-09T08:46:33.375Z,8.6
2022-08-09T08:51:18.214Z,9.6
2022-08-09T08:56:25.115Z,10.5
2022-08-09T09:01:44.800Z,11.4
2022-08-09T09:06:29.634Z,10.5
2022-08-09T09:11:34.142Z,10.5
2022-08-09T09:16:37.718Z,10.4
2022-08-09T09:21:43.246Z,10.6
2022-08-09T09:26:46.795Z,11.2
2022-08-09T09:32:06.978Z,10.6
2022-08-09T09:36:54.970Z,11.8
2022-08-09T09:41:59.409Z,12.3
2022-08-09T09:47:03.920Z,12.7
2022-08-09T09:52:07.595Z,12.8
2022-08-09T09:58:04.373Z,13.5
2022-08-09T10:02:16.657Z,13.5
2022-08-09T10:07:20.135Z,14.1
2022-08-09T10:12:43.641Z,13.4
2022-08-09T10:17:55.180Z,14.1
2022-08-09T10:22:33.714Z,14
2022-08-09T10:27:38.698Z,14.1
2022-08-09T10:32:48.534Z,13.6
2022-08-09T10:37:45.401Z,14.7
2022-08-09T10:42:52.890Z,14
2022-08-09T10:48:13.131Z,14.6
2022-08-09T10:53:00.145Z,14.7
2022-08-09T10:58:02.587Z,15.4
2022-08-09T11:03:18.788Z,15
2022-08-09T11:08:11.646Z,15.7
2022-08-09T11:13:49.522Z,16.1
2022-08-09T11:18:19.755Z,15.8
2022-08-09T11:23:30.110Z,16
2022-08-09T11:28:34.010Z,16.3
2022-08-09T11:33:32.426Z,16.3
2022-08-09T11:38:41.531Z,15.8
2022-08-09T11:43:40.466Z,16.3
2022-08-09T11:48:45.017Z,16.2
2022-08-09T11:54:01.416Z,17.2
2022-08-09T11:58:53.106Z,15.9
2022-08-09T12:03:58.363Z,16.2
2022-08-09T12:09:01.452Z,16.3
2022-08-09T12:14:07.308Z,15.8
2022-08-09T12:19:11.502Z,16.3
2022-08-09T12:24:13.868Z,17
2022-08-09T12:29:29.700Z,16.3
2022-08-09T12:34:22.996Z,17.1
2022-08-09T12:39:27.640Z,17
2022-08-09T12:44:37.465Z,16.7
2022-08-09T12:49:35.574Z,17.3
2022-08-09T12:54:40.120Z,17.2
2022-08-09T13:00:02.807Z,16.6
2022-08-09T13:04:48.207Z,16.3
2022-08-09T13:09:55.402Z,16.1
2022-08-09T13:14:56.329Z,16.6
2022-08-09T13:20:09.378Z,16.6
2022-08-09T13:25:05.445Z,16
2022-08-09T13:30:48.859Z,16.3
2022-08-09T13:35:13.501Z,16.3
2022-08-09T13:41:51.142Z,16
2022-08-09T13:45:32.365Z,16.3
2022-08-09T13:50:30.445Z,15.9
2022-08-09T13:55:30.707Z,15.5
2022-08-09T14:00:42.770Z,15.9
2022-08-09T14:05:57.279Z,15.7
2022-08-09T14:10:49.363Z,15.6
2022-08-09T14:16:09.104Z,15.8
2022-08-09T14:20:51.410Z,16.1
2022-08-09T14:26:00.984Z,16.2
2022-08-09T14:31:00.491Z,15.9
2022-08-09T14:36:04.023Z,15.7
2022-08-09T14:41:39.507Z,15.8
2022-08-09T14:46:54.999Z,15.5
2022-08-09T14:51:17.685Z,15.9
2022-08-09T14:56:21.700Z,15.5
2022-08-09T15:01:25.774Z,15.9
2022-08-09T15:06:30.273Z,15.7
2022-08-09T15:11:33.830Z,15.2
2022-08-09T15:16:38.368Z,15.4
2022-08-09T15:21:58.348Z,15.7
2022-08-09T15:26:46.816Z,15.1
2022-08-09T15:31:51.013Z,15
2022-08-09T15:36:55.576Z,15
2022-08-09T15:41:59.325Z,15.2
2022-08-09T15:47:03.702Z,14.7
2022-08-09T15:52:08.163Z,14.4
2022-08-09T15:57:12.752Z,14.3
2022-08-09T16:02:16.255Z,14.2
2022-08-09T16:07:19.810Z,14
2022-08-09T16:12:26.304Z,14.2
2022-08-09T16:17:29.178Z,13.9
2022-08-09T16:22:32.650Z,13.8
2022-08-09T16:27:36.988Z,13.5
2022-08-09T16:32:49.277Z,13.6
2022-08-09T16:37:53.129Z,13.5
2022-08-09T16:42:49.632Z,13.8
2022-08-09T16:48:38.471Z,13.4
2022-08-09T16:52:58.711Z,13.1
2022-08-09T16:58:10.033Z,12.9
2022-08-09T17:03:06.801Z,12.8
2022-08-09T17:08:46.289Z,12.9
2022-08-09T17:13:14.873Z,13.1
2022-08-09T17:18:26.767Z,12.9
2022-08-09T17:24:20.934Z,12.7
2022-08-09T17:28:27.510Z,12.8
2022-08-09T17:33:36.054Z,12.5
2022-08-09T17:38:39.451Z,12.7
2022-08-09T17:43:42.829Z,12.4
2022-08-09T17:48:51.870Z,12.2
2022-08-09T17:53:53.470Z,12
2022-08-09T17:58:53.739Z,11.7
2022-08-09T18:03:57.265Z,11.6
2022-08-09T18:09:01.802Z,11.6
2022-08-09T18:14:13.204Z,11.4
2022-08-09T18:20:54.060Z,11.3
2022-08-09T18:24:15.249Z,11.1
2022-08-09T18:30:38.594Z,11
2022-08-09T18:34:24.146Z,10.9
2022-08-09T18:39:32.664Z,10.6
2022-08-09T18:44:31.566Z,10.5
2022-08-09T18:49:43.075Z,10.5
2022-08-09T18:54:45.815Z,10.4
2022-08-09T18:59:48.740Z,10.2
2022-08-09T19:05:03.940Z,10
2022-08-09T19:10:14.743Z,10
2022-08-09T19:14:56.840Z,9.8
2022-08-09T19:20:02.177Z,9.8
2022-08-09T19:25:09.601Z,9.7
2022-08-09T19:30:22.199Z,9.6
2022-08-09T19:35:14.031Z,9.6
2022-08-09T19:40:19.577Z,9.5
2022-08-09T19:45:22.047Z,9.5
2022-08-09T19:50:50.749Z,9.4
2022-08-09T19:56:05.615Z,9.4
2022-08-09T20:00:34.699Z,9.3
2022-08-09T20:05:46.798Z,9.3
2022-08-09T20:10:43.841Z,9.3
2022-08-09T20:16:34.642Z,9.1
2022-08-09T20:20:51.272Z,9
2022-08-09T20:25:55.411Z,9
2022-08-09T20:30:59.909Z,8.9
2022-08-09T20:36:04.446Z,8.9
2022-08-09T20:41:08.196Z,8.8
2022-08-09T20:46:33.729Z,8.7
2022-08-09T20:51:19.525Z,8.7
2022-08-09T20:56:21.836Z,8.6
2022-08-09T21:01:32.868Z,8.4
2022-08-09T21:06:29.692Z,8.4
2022-08-09T21:16:38.024Z,8.1
2022-08-09T21:21:53.868Z,8.1
2022-08-09T21:26:45.842Z,8
2022-08-09T21:31:50.364Z,7.9
2022-08-09T21:36:55.735Z,7.9
2022-08-09T21:42:05.526Z,7.8
2022-08-09T21:47:02.992Z,7.9
2022-08-09T21:52:07.551Z,7.8
2022-08-09T21:57:37.489Z,7.8
2022-08-09T22:02:29.484Z,7.7
2022-08-09T22:07:35.280Z,7.6
2022-08-09T22:12:30.756Z,7.5
2022-08-09T22:17:32.139Z,7.5
2022-08-09T22:22:33.758Z,7.4
2022-08-09T22:27:37.282Z,7.3
2022-08-09T22:32:40.869Z,7.3
2022-08-09T22:37:45.376Z,7.3
2022-08-09T22:42:49.937Z,7.3
2022-08-09T22:48:18.635Z,7.2
2022-08-09T22:52:58.775Z,7.2
2022-08-09T22:58:04.818Z,7.1
2022-08-09T23:03:12.301Z,7
2022-08-09T23:08:29.133Z,6.9
2022-08-09T23:13:15.180Z,6.8
2022-08-09T23:18:19.737Z,6.8
2022-08-09T23:23:23.261Z,6.8
2022-08-09T23:28:27.790Z,6.7
2022-08-09T23:33:32.346Z,6.6
2022-08-09T23:38:48.102Z,6.5
2022-08-09T23:43:40.393Z,6.5
2022-08-09T23:48:44.925Z,6.5
2022-08-09T23:53:50.617Z,6.4
2022-08-09T23:58:53.052Z,6.4
